Jacobs, Texas
Current Conditions -  °F | °C
As of 10:35 PM on Wednesday 26 Nov 2014 (Local Time) from KRFI Reporting Station
Clear Clear  
Wind Chill:   Ceiling: Unl
Heat Index:   Visibility: 10mi
Dew Point:   Wind: 3mph
Humidity: 60%   Direction: 320°NW
Pressure: 30.34"   Gusts: NA
Location:  32.2818°N, 94.951°W
Report Text: KRFI 270435Z AUTO 32003KT 10SM CLR 09/02 A3034 RMK AO2 T00920017
Loading
Personal Weather Stations






























Interactive Weather Map New forecast layout! Learn more

10-Day Weather Forecast

Advertisements
Track Severe Weather on mobile